sensor_id;sensor_type;location;lat;lon;timestamp;pressure;altitude;pressure_sealevel;temperature;humidity
74403;BME280;62837;51.082;13.744;2023-02-03T00:01:44;101124.13;;;3.97;77.79
74403;BME280;62837;51.082;13.744;2023-02-03T00:04:15;101122.13;;;3.95;77.58
74403;BME280;62837;51.082;13.744;2023-02-03T00:06:46;101121.27;;;3.96;77.63
74403;BME280;62837;51.082;13.744;2023-02-03T00:09:17;101118.52;;;3.96;77.88
74403;BME280;62837;51.082;13.744;2023-02-03T00:11:49;101118.52;;;3.98;77.87
74403;BME280;62837;51.082;13.744;2023-02-03T00:14:20;101113.36;;;4.00;77.65
74403;BME280;62837;51.082;13.744;2023-02-03T00:16:50;101105.33;;;4.03;79.85
74403;BME280;62837;51.082;13.744;2023-02-03T00:19:21;101099.89;;;4.23;82.62
74403;BME280;62837;51.082;13.744;2023-02-03T00:21:52;101097.96;;;4.46;83.07
74403;BME280;62837;51.082;13.744;2023-02-03T00:24:22;101096.01;;;4.67;82.54
74403;BME280;62837;51.082;13.744;2023-02-03T00:26:53;101098.39;;;4.87;82.18
74403;BME280;62837;51.082;13.744;2023-02-03T00:29:24;101097.35;;;5.02;81.61
74403;BME280;62837;51.082;13.744;2023-02-03T00:31:55;101097.05;;;5.07;79.25
74403;BME280;62837;51.082;13.744;2023-02-03T00:34:29;101094.14;;;5.11;79.76
74403;BME280;62837;51.082;13.744;2023-02-03T00:37:00;101091.47;;;5.20;79.99
74403;BME280;62837;51.082;13.744;2023-02-03T00:39:34;101087.45;;;5.28;79.87
74403;BME280;62837;51.082;13.744;2023-02-03T00:42:06;101079.13;;;5.38;79.53
74403;BME280;62837;51.082;13.744;2023-02-03T00:44:37;101075.73;;;5.46;78.96
74403;BME280;62837;51.082;13.744;2023-02-03T00:47:08;101077.37;;;5.43;77.26
74403;BME280;62837;51.082;13.744;2023-02-03T00:49:39;101063.67;;;5.40;78.27
74403;BME280;62837;51.082;13.744;2023-02-03T00:52:10;101059.41;;;5.40;77.10
74403;BME280;62837;51.082;13.744;2023-02-03T00:54:41;101054.34;;;5.40;77.99
74403;BME280;62837;51.082;13.744;2023-02-03T00:57:12;101050.02;;;5.47;78.06
74403;BME280;62837;51.082;13.744;2023-02-03T00:59:42;101044.52;;;5.48;77.16
74403;BME280;62837;51.082;13.744;2023-02-03T01:02:13;101035.57;;;5.48;77.32
74403;BME280;62837;51.082;13.744;2023-02-03T01:04:45;101032.67;;;5.48;76.48
74403;BME280;62837;51.082;13.744;2023-02-03T01:07:16;101023.65;;;5.37;75.94
74403;BME280;62837;51.082;13.744;2023-02-03T01:09:46;101021.05;;;5.23;75.57
74403;BME280;62837;51.082;13.744;2023-02-03T01:12:17;101015.52;;;5.16;76.80
74403;BME280;62837;51.082;13.744;2023-02-03T01:14:48;101012.08;;;5.18;77.56
74403;BME280;62837;51.082;13.744;2023-02-03T01:17:19;101007.92;;;5.27;77.84
74403;BME280;62837;51.082;13.744;2023-02-03T01:19:50;100998.03;;;5.36;77.43
74403;BME280;62837;51.082;13.744;2023-02-03T01:22:21;100988.71;;;5.40;77.29
74403;BME280;62837;51.082;13.744;2023-02-03T01:24:52;100989.08;;;5.41;77.45
74403;BME280;62837;51.082;13.744;2023-02-03T01:27:23;100980.85;;;5.44;77.11
74403;BME280;62837;51.082;13.744;2023-02-03T01:29:54;100971.30;;;5.47;77.11
74403;BME280;62837;51.082;13.744;2023-02-03T01:32:24;100966.67;;;5.44;76.92
74403;BME280;62837;51.082;13.744;2023-02-03T01:34:55;100956.87;;;5.42;76.87
74403;BME280;62837;51.082;13.744;2023-02-03T01:37:26;100952.11;;;5.43;77.18
74403;BME280;62837;51.082;13.744;2023-02-03T01:39:57;100950.56;;;5.42;76.47
74403;BME280;62837;51.082;13.744;2023-02-03T01:42:32;100936.55;;;5.40;77.02
74403;BME280;62837;51.082;13.744;2023-02-03T01:45:04;100933.52;;;5.45;77.13
74403;BME280;62837;51.082;13.744;2023-02-03T01:47:39;100941.60;;;5.47;76.76
74403;BME280;62837;51.082;13.744;2023-02-03T01:50:16;100938.54;;;5.36;76.11
74403;BME280;62837;51.082;13.744;2023-02-03T01:52:51;100941.94;;;5.25;75.85
74403;BME280;62837;51.082;13.744;2023-02-03T01:55:24;100942.49;;;5.09;76.15
74403;BME280;62837;51.082;13.744;2023-02-03T01:58:00;100941.95;;;5.05;76.91
74403;BME280;62837;51.082;13.744;2023-02-03T02:00:33;100933.86;;;5.02;77.02
74403;BME280;62837;51.082;13.744;2023-02-03T02:03:04;100923.84;;;5.05;77.22
74403;BME280;62837;51.082;13.744;2023-02-03T02:05:39;100915.11;;;5.11;77.71
74403;BME280;62837;51.082;13.744;2023-02-03T02:08:13;100911.46;;;5.19;77.49
74403;BME280;62837;51.082;13.744;2023-02-03T02:10:47;100905.27;;;5.23;77.06
74403;BME280;62837;51.082;13.744;2023-02-03T02:13:20;100890.90;;;5.27;76.94
74403;BME280;62837;51.082;13.744;2023-02-03T02:15:57;100881.17;;;5.26;76.79
74403;BME280;62837;51.082;13.744;2023-02-03T02:18:44;100867.02;;;5.32;77.20
74403;BME280;62837;51.082;13.744;2023-02-03T02:21:48;100865.95;;;5.40;77.07
74403;BME280;62837;51.082;13.744;2023-02-03T02:27:36;100867.33;;;5.54;75.96
74403;BME280;62837;51.082;13.744;2023-02-03T02:30:18;100854.17;;;5.50;76.34
74403;BME280;62837;51.082;13.744;2023-02-03T02:33:02;100864.66;;;5.52;76.36
74403;BME280;62837;51.082;13.744;2023-02-03T02:35:46;100849.96;;;5.43;75.98
74403;BME280;62837;51.082;13.744;2023-02-03T02:38:28;100847.02;;;5.46;76.21
74403;BME280;62837;51.082;13.744;2023-02-03T02:41:07;100841.49;;;5.41;76.28
74403;BME280;62837;51.082;13.744;2023-02-03T02:43:43;100836.30;;;5.36;75.65
74403;BME280;62837;51.082;13.744;2023-02-03T02:46:21;100818.85;;;5.21;75.89
74403;BME280;62837;51.082;13.744;2023-02-03T02:48:58;100816.71;;;5.22;76.90
74403;BME280;62837;51.082;13.744;2023-02-03T02:51:30;100817.73;;;5.31;76.99
74403;BME280;62837;51.082;13.744;2023-02-03T02:54:06;100806.77;;;5.39;76.94
74403;BME280;62837;51.082;13.744;2023-02-03T02:56:39;100799.11;;;5.44;76.22
74403;BME280;62837;51.082;13.744;2023-02-03T02:59:13;100803.58;;;5.37;75.90
74403;BME280;62837;51.082;13.744;2023-02-03T03:01:44;100786.19;;;5.29;76.10
74403;BME280;62837;51.082;13.744;2023-02-03T03:04:17;100771.48;;;5.25;76.80
74403;BME280;62837;51.082;13.744;2023-02-03T03:06:52;100765.05;;;5.30;76.86
74403;BME280;62837;51.082;13.744;2023-02-03T03:09:28;100759.60;;;5.38;77.14
74403;BME280;62837;51.082;13.744;2023-02-03T03:12:04;100750.92;;;5.48;77.07
74403;BME280;62837;51.082;13.744;2023-02-03T03:14:40;100747.36;;;5.55;76.77
74403;BME280;62837;51.082;13.744;2023-02-03T03:17:16;100737.90;;;5.59;76.76
74403;BME280;62837;51.082;13.744;2023-02-03T03:19:52;100735.52;;;5.65;76.76
74403;BME280;62837;51.082;13.744;2023-02-03T03:22:29;100735.52;;;5.70;76.83
74403;BME280;62837;51.082;13.744;2023-02-03T03:25:07;100729.08;;;5.76;76.73
74403;BME280;62837;51.082;13.744;2023-02-03T03:27:43;100733.10;;;5.76;76.39
74403;BME280;62837;51.082;13.744;2023-02-03T03:30:19;100732.84;;;5.78;76.72
74403;BME280;62837;51.082;13.744;2023-02-03T03:32:52;100732.61;;;5.81;76.40
74403;BME280;62837;51.082;13.744;2023-02-03T03:35:23;100726.08;;;5.84;76.56
74403;BME280;62837;51.082;13.744;2023-02-03T03:38:02;100724.58;;;5.82;75.97
74403;BME280;62837;51.082;13.744;2023-02-03T03:40:40;100724.16;;;5.77;76.34
74403;BME280;62837;51.082;13.744;2023-02-03T03:43:15;100716.79;;;5.79;76.55
74403;BME280;62837;51.082;13.744;2023-02-03T03:45:54;100715.27;;;5.76;76.14
74403;BME280;62837;51.082;13.744;2023-02-03T03:48:30;100718.91;;;5.63;76.62
74403;BME280;62837;51.082;13.744;2023-02-03T03:51:05;100718.64;;;5.58;76.75
74403;BME280;62837;51.082;13.744;2023-02-03T03:53:39;100718.83;;;5.58;77.13
74403;BME280;62837;51.082;13.744;2023-02-03T03:56:16;100716.20;;;5.59;77.39
74403;BME280;62837;51.082;13.744;2023-02-03T03:58:49;100710.48;;;5.63;77.50
74403;BME280;62837;51.082;13.744;2023-02-03T04:01:20;100703.10;;;5.60;77.41
74403;BME280;62837;51.082;13.744;2023-02-03T04:03:56;100693.23;;;5.56;77.54
74403;BME280;62837;51.082;13.744;2023-02-03T04:06:28;100678.75;;;5.54;78.22
74403;BME280;62837;51.082;13.744;2023-02-03T04:08:59;100669.48;;;5.54;78.30
74403;BME280;62837;51.082;13.744;2023-02-03T04:11:30;100657.05;;;5.57;78.49
74403;BME280;62837;51.082;13.744;2023-02-03T04:14:19;100639.36;;;5.66;78.78
74403;BME280;62837;51.082;13.744;2023-02-03T04:16:50;100632.80;;;5.74;78.81
74403;BME280;62837;51.082;13.744;2023-02-03T04:19:20;100629.02;;;5.74;78.59
74403;BME280;62837;51.082;13.744;2023-02-03T04:21:51;100628.63;;;5.71;78.75
74403;BME280;62837;51.082;13.744;2023-02-03T04:24:22;100632.92;;;5.73;78.86
74403;BME280;62837;51.082;13.744;2023-02-03T04:26:53;100625.09;;;5.73;79.07
74403;BME280;62837;51.082;13.744;2023-02-03T04:29:24;100621.03;;;5.80;79.25
74403;BME280;62837;51.082;13.744;2023-02-03T04:31:55;100625.02;;;5.76;79.39
74403;BME280;62837;51.082;13.744;2023-02-03T04:34:26;100619.92;;;5.73;79.67
74403;BME280;62837;51.082;13.744;2023-02-03T04:36:57;100620.42;;;5.73;80.06
74403;BME280;62837;51.082;13.744;2023-02-03T04:39:28;100618.80;;;5.76;80.04
74403;BME280;62837;51.082;13.744;2023-02-03T04:41:59;100611.95;;;5.77;80.27
74403;BME280;62837;51.082;13.744;2023-02-03T04:44:29;100616.42;;;5.84;80.82
74403;BME280;62837;51.082;13.744;2023-02-03T04:47:00;100618.69;;;5.88;80.82
74403;BME280;62837;51.082;13.744;2023-02-03T04:49:31;100603.10;;;5.94;81.04
74403;BME280;62837;51.082;13.744;2023-02-03T04:52:02;100611.02;;;6.01;81.00
74403;BME280;62837;51.082;13.744;2023-02-03T04:54:33;100605.20;;;5.99;81.34
74403;BME280;62837;51.082;13.744;2023-02-03T04:57:04;100602.66;;;6.02;81.49
74403;BME280;62837;51.082;13.744;2023-02-03T04:59:34;100613.54;;;6.01;81.71
74403;BME280;62837;51.082;13.744;2023-02-03T05:02:05;100606.99;;;6.01;81.74
74403;BME280;62837;51.082;13.744;2023-02-03T05:04:37;100609.05;;;6.01;81.96
74403;BME280;62837;51.082;13.744;2023-02-03T05:07:08;100604.81;;;6.00;81.88
74403;BME280;62837;51.082;13.744;2023-02-03T05:09:39;100595.07;;;6.00;82.15
74403;BME280;62837;51.082;13.744;2023-02-03T05:12:09;100591.96;;;6.00;82.26
74403;BME280;62837;51.082;13.744;2023-02-03T05:14:40;100593.98;;;6.00;82.47
74403;BME280;62837;51.082;13.744;2023-02-03T05:17:11;100591.88;;;6.01;82.33
74403;BME280;62837;51.082;13.744;2023-02-03T05:19:42;100580.44;;;6.02;82.38
74403;BME280;62837;51.082;13.744;2023-02-03T05:22:13;100581.54;;;6.04;82.25
74403;BME280;62837;51.082;13.744;2023-02-03T05:24:44;100576.55;;;6.09;82.31
74403;BME280;62837;51.082;13.744;2023-02-03T05:27:15;100567.27;;;6.10;82.29
74403;BME280;62837;51.082;13.744;2023-02-03T05:29:45;100555.04;;;6.10;82.33
74403;BME280;62837;51.082;13.744;2023-02-03T05:32:16;100553.86;;;6.11;82.40
74403;BME280;62837;51.082;13.744;2023-02-03T05:34:47;100549.20;;;6.14;82.32
74403;BME280;62837;51.082;13.744;2023-02-03T05:37:18;100544.73;;;6.15;82.08
74403;BME280;62837;51.082;13.744;2023-02-03T05:39:49;100538.58;;;6.13;82.18
74403;BME280;62837;51.082;13.744;2023-02-03T05:42:20;100541.27;;;6.17;82.32
74403;BME280;62837;51.082;13.744;2023-02-03T05:44:50;100554.02;;;6.18;82.05
74403;BME280;62837;51.082;13.744;2023-02-03T05:47:21;100555.90;;;6.19;82.06
74403;BME280;62837;51.082;13.744;2023-02-03T05:49:52;100551.70;;;6.21;81.85
74403;BME280;62837;51.082;13.744;2023-02-03T05:52:23;100544.56;;;6.23;82.14
74403;BME280;62837;51.082;13.744;2023-02-03T05:54:55;100557.09;;;6.27;81.94
74403;BME280;62837;51.082;13.744;2023-02-03T05:57:25;100561.89;;;6.29;81.64
74403;BME280;62837;51.082;13.744;2023-02-03T05:59:56;100567.34;;;6.30;81.63
74403;BME280;62837;51.082;13.744;2023-02-03T06:02:27;100562.89;;;6.33;81.69
74403;BME280;62837;51.082;13.744;2023-02-03T06:04:58;100552.84;;;6.33;81.73
74403;BME280;62837;51.082;13.744;2023-02-03T06:07:28;100552.64;;;6.34;81.55
74403;BME280;62837;51.082;13.744;2023-02-03T06:09:59;100555.27;;;6.34;81.79
74403;BME280;62837;51.082;13.744;2023-02-03T06:12:30;100555.77;;;6.37;81.80
74403;BME280;62837;51.082;13.744;2023-02-03T06:15:01;100559.74;;;6.37;81.46
74403;BME280;62837;51.082;13.744;2023-02-03T06:17:31;100549.76;;;6.37;81.73
74403;BME280;62837;51.082;13.744;2023-02-03T06:20:02;100542.45;;;6.38;81.69
74403;BME280;62837;51.082;13.744;2023-02-03T06:22:33;100545.00;;;6.39;81.69
74403;BME280;62837;51.082;13.744;2023-02-03T06:25:05;100533.70;;;6.41;81.79
74403;BME280;62837;51.082;13.744;2023-02-03T06:27:36;100520.04;;;6.41;81.51
74403;BME280;62837;51.082;13.744;2023-02-03T06:30:09;100520.92;;;6.40;81.79
74403;BME280;62837;51.082;13.744;2023-02-03T06:32:42;100515.21;;;6.40;81.79
74403;BME280;62837;51.082;13.744;2023-02-03T06:35:13;100516.00;;;6.41;81.53
74403;BME280;62837;51.082;13.744;2023-02-03T06:37:44;100518.60;;;6.44;81.61
74403;BME280;62837;51.082;13.744;2023-02-03T06:40:15;100520.48;;;6.49;81.51
74403;BME280;62837;51.082;13.744;2023-02-03T06:42:47;100511.92;;;6.52;81.38
74403;BME280;62837;51.082;13.744;2023-02-03T06:45:19;100505.16;;;6.53;81.20
74403;BME280;62837;51.082;13.744;2023-02-03T06:47:50;100504.63;;;6.53;80.91
74403;BME280;62837;51.082;13.744;2023-02-03T06:50:21;100501.89;;;6.53;80.90
74403;BME280;62837;51.082;13.744;2023-02-03T06:52:51;100494.23;;;6.53;81.17
74403;BME280;62837;51.082;13.744;2023-02-03T06:55:22;100486.20;;;6.52;81.41
74403;BME280;62837;51.082;13.744;2023-02-03T06:57:53;100479.56;;;6.51;81.83
74403;BME280;62837;51.082;13.744;2023-02-03T07:00:24;100472.48;;;6.49;81.52
74403;BME280;62837;51.082;13.744;2023-02-03T07:02:57;100472.05;;;6.50;81.65
74403;BME280;62837;51.082;13.744;2023-02-03T07:05:28;100461.78;;;6.48;81.54
74403;BME280;62837;51.082;13.744;2023-02-03T07:07:59;100458.81;;;6.47;81.27
74403;BME280;62837;51.082;13.744;2023-02-03T07:10:29;100451.94;;;6.48;81.36
74403;BME280;62837;51.082;13.744;2023-02-03T07:13:04;100439.92;;;6.48;81.31
74403;BME280;62837;51.082;13.744;2023-02-03T07:15:35;100439.48;;;6.50;81.34
74403;BME280;62837;51.082;13.744;2023-02-03T07:18:06;100436.36;;;6.51;80.90
74403;BME280;62837;51.082;13.744;2023-02-03T07:20:37;100431.40;;;6.52;81.16
74403;BME280;62837;51.082;13.744;2023-02-03T07:23:08;100428.66;;;6.54;81.09
74403;BME280;62837;51.082;13.744;2023-02-03T07:25:39;100432.53;;;6.54;80.86
74403;BME280;62837;51.082;13.744;2023-02-03T07:28:10;100434.35;;;6.52;80.67
74403;BME280;62837;51.082;13.744;2023-02-03T07:30:41;100429.77;;;6.50;80.50
74403;BME280;62837;51.082;13.744;2023-02-03T07:33:12;100429.77;;;6.48;80.43
74403;BME280;62837;51.082;13.744;2023-02-03T07:35:43;100434.11;;;6.49;80.03
74403;BME280;62837;51.082;13.744;2023-02-03T07:38:14;100433.35;;;6.49;80.05
74403;BME280;62837;51.082;13.744;2023-02-03T07:40:44;100434.98;;;6.51;79.76
74403;BME280;62837;51.082;13.744;2023-02-03T07:43:15;100428.01;;;6.51;79.90
74403;BME280;62837;51.082;13.744;2023-02-03T07:45:46;100423.60;;;6.53;79.77
74403;BME280;62837;51.082;13.744;2023-02-03T07:48:17;100416.56;;;6.54;79.70
74403;BME280;62837;51.082;13.744;2023-02-03T07:50:49;100411.39;;;6.54;80.02
74403;BME280;62837;51.082;13.744;2023-02-03T07:53:21;100407.23;;;6.54;80.05
74403;BME280;62837;51.082;13.744;2023-02-03T07:55:52;100404.08;;;6.52;80.34
74403;BME280;62837;51.082;13.744;2023-02-03T07:58:23;100410.56;;;6.51;80.50
74403;BME280;62837;51.082;13.744;2023-02-03T08:00:53;100407.06;;;6.48;80.72
74403;BME280;62837;51.082;13.744;2023-02-03T08:03:24;100407.77;;;6.46;81.03
74403;BME280;62837;51.082;13.744;2023-02-03T08:05:55;100414.81;;;6.44;81.28
74403;BME280;62837;51.082;13.744;2023-02-03T08:08:26;100401.44;;;6.42;81.55
74403;BME280;62837;51.082;13.744;2023-02-03T08:10:56;100391.22;;;6.40;81.76
74403;BME280;62837;51.082;13.744;2023-02-03T08:13:28;100395.95;;;6.38;81.69
74403;BME280;62837;51.082;13.744;2023-02-03T08:15:58;100388.26;;;6.36;81.80
74403;BME280;62837;51.082;13.744;2023-02-03T08:18:29;100383.92;;;6.35;81.68
74403;BME280;62837;51.082;13.744;2023-02-03T08:21:01;100386.53;;;6.36;81.79
74403;BME280;62837;51.082;13.744;2023-02-03T08:23:33;100377.29;;;6.36;81.76
74403;BME280;62837;51.082;13.744;2023-02-03T08:26:04;100373.34;;;6.36;81.79
74403;BME280;62837;51.082;13.744;2023-02-03T08:28:35;100383.59;;;6.35;81.80
74403;BME280;62837;51.082;13.744;2023-02-03T08:31:10;100375.73;;;6.35;81.75
74403;BME280;62837;51.082;13.744;2023-02-03T08:33:41;100380.64;;;6.37;81.75
74403;BME280;62837;51.082;13.744;2023-02-03T08:36:13;100378.67;;;6.39;81.75
74403;BME280;62837;51.082;13.744;2023-02-03T08:38:43;100376.13;;;6.40;82.02
74403;BME280;62837;51.082;13.744;2023-02-03T08:41:15;100370.20;;;6.41;81.91
74403;BME280;62837;51.082;13.744;2023-02-03T08:43:48;100363.09;;;6.38;82.03
74403;BME280;62837;51.082;13.744;2023-02-03T08:46:19;100366.58;;;6.42;82.21
74403;BME280;62837;51.082;13.744;2023-02-03T08:48:49;100368.01;;;6.43;82.22
74403;BME280;62837;51.082;13.744;2023-02-03T08:51:21;100362.10;;;6.43;82.39
74403;BME280;62837;51.082;13.744;2023-02-03T08:53:52;100362.17;;;6.43;82.12
74403;BME280;62837;51.082;13.744;2023-02-03T08:56:24;100364.45;;;6.42;82.42
74403;BME280;62837;51.082;13.744;2023-02-03T08:58:56;100364.52;;;6.42;82.56
74403;BME280;62837;51.082;13.744;2023-02-03T09:01:36;100364.31;;;6.41;82.54
74403;BME280;62837;51.082;13.744;2023-02-03T09:04:09;100362.69;;;6.40;82.72
74403;BME280;62837;51.082;13.744;2023-02-03T09:06:40;100358.34;;;6.36;82.78
74403;BME280;62837;51.082;13.744;2023-02-03T09:09:10;100354.63;;;6.39;82.68
74403;BME280;62837;51.082;13.744;2023-02-03T09:11:42;100349.13;;;6.39;82.90
74403;BME280;62837;51.082;13.744;2023-02-03T09:14:13;100350.80;;;6.39;82.97
74403;BME280;62837;51.082;13.744;2023-02-03T09:16:44;100343.75;;;6.39;83.06
74403;BME280;62837;51.082;13.744;2023-02-03T09:19:14;100339.81;;;6.38;83.10
74403;BME280;62837;51.082;13.744;2023-02-03T09:21:45;100334.99;;;6.37;83.20
74403;BME280;62837;51.082;13.744;2023-02-03T09:24:17;100331.15;;;6.37;83.32
74403;BME280;62837;51.082;13.744;2023-02-03T09:26:48;100326.64;;;6.35;83.47
74403;BME280;62837;51.082;13.744;2023-02-03T09:29:19;100317.48;;;6.34;83.40
74403;BME280;62837;51.082;13.744;2023-02-03T09:31:51;100310.25;;;6.34;83.46
74403;BME280;62837;51.082;13.744;2023-02-03T09:34:22;100306.48;;;6.33;83.47
74403;BME280;62837;51.082;13.744;2023-02-03T09:36:53;100306.42;;;6.34;83.58
74403;BME280;62837;51.082;13.744;2023-02-03T09:39:24;100303.10;;;6.35;83.38
74403;BME280;62837;51.082;13.744;2023-02-03T09:42:07;100288.48;;;6.37;83.67
74403;BME280;62837;51.082;13.744;2023-02-03T09:44:44;100283.92;;;6.38;83.50
74403;BME280;62837;51.082;13.744;2023-02-03T09:47:19;100263.30;;;6.38;83.65
74403;BME280;62837;51.082;13.744;2023-02-03T09:49:54;100252.33;;;6.39;83.80
74403;BME280;62837;51.082;13.744;2023-02-03T09:52:29;100245.86;;;6.38;83.83
74403;BME280;62837;51.082;13.744;2023-02-03T09:55:04;100243.83;;;6.37;84.02
74403;BME280;62837;51.082;13.744;2023-02-03T09:57:43;100240.63;;;6.36;84.08
74403;BME280;62837;51.082;13.744;2023-02-03T10:00:20;100234.45;;;6.34;84.19
74403;BME280;62837;51.082;13.744;2023-02-03T10:02:57;100236.07;;;6.33;84.15
74403;BME280;62837;51.082;13.744;2023-02-03T10:05:44;100228.84;;;6.34;84.36
74403;BME280;62837;51.082;13.744;2023-02-03T10:08:25;100228.10;;;6.35;84.07
74403;BME280;62837;51.082;13.744;2023-02-03T10:11:04;100229.40;;;6.36;83.97
74403;BME280;62837;51.082;13.744;2023-02-03T10:13:46;100217.02;;;6.38;83.84
74403;BME280;62837;51.082;13.744;2023-02-03T10:16:30;100207.19;;;6.40;83.85
74403;BME280;62837;51.082;13.744;2023-02-03T10:19:09;100201.97;;;6.43;83.85
74403;BME280;62837;51.082;13.744;2023-02-03T10:21:43;100197.27;;;6.45;83.65
74403;BME280;62837;51.082;13.744;2023-02-03T10:24:20;100187.60;;;6.47;83.87
74403;BME280;62837;51.082;13.744;2023-02-03T10:26:52;100182.61;;;6.49;84.08
74403;BME280;62837;51.082;13.744;2023-02-03T10:29:28;100181.12;;;6.51;84.09
74403;BME280;62837;51.082;13.744;2023-02-03T10:32:01;100172.23;;;6.52;84.18
74403;BME280;62837;51.082;13.744;2023-02-03T10:34:32;100172.67;;;6.53;84.17
74403;BME280;62837;51.082;13.744;2023-02-03T10:37:05;100166.52;;;6.54;84.27
74403;BME280;62837;51.082;13.744;2023-02-03T10:39:45;100163.20;;;6.54;84.50
74403;BME280;62837;51.082;13.744;2023-02-03T10:42:17;100145.50;;;6.54;84.57
74403;BME280;62837;51.082;13.744;2023-02-03T10:44:51;100147.25;;;6.56;84.63
74403;BME280;62837;51.082;13.744;2023-02-03T10:47:26;100143.16;;;6.56;84.68
74403;BME280;62837;51.082;13.744;2023-02-03T10:50:00;100132.75;;;6.57;84.92
74403;BME280;62837;51.082;13.744;2023-02-03T10:52:34;100127.39;;;6.58;84.75
74403;BME280;62837;51.082;13.744;2023-02-03T10:55:27;100129.36;;;6.58;84.73
74403;BME280;62837;51.082;13.744;2023-02-03T10:58:09;100124.77;;;6.60;84.64
74403;BME280;62837;51.082;13.744;2023-02-03T11:00:44;100121.39;;;6.62;84.55
74403;BME280;62837;51.082;13.744;2023-02-03T11:03:22;100105.51;;;6.64;84.72
74403;BME280;62837;51.082;13.744;2023-02-03T11:06:03;100108.33;;;6.67;84.36
74403;BME280;62837;51.082;13.744;2023-02-03T11:08:36;100089.21;;;6.68;84.04
74403;BME280;62837;51.082;13.744;2023-02-03T11:11:09;100105.48;;;6.70;83.98
74403;BME280;62837;51.082;13.744;2023-02-03T11:13:42;100112.92;;;6.72;83.93
74403;BME280;62837;51.082;13.744;2023-02-03T11:16:15;100101.05;;;6.75;83.70
74403;BME280;62837;51.082;13.744;2023-02-03T11:18:52;100095.38;;;6.77;83.37
74403;BME280;62837;51.082;13.744;2023-02-03T11:21:25;100095.55;;;6.80;83.33
74403;BME280;62837;51.082;13.744;2023-02-03T11:24:10;100095.85;;;6.84;83.36
74403;BME280;62837;51.082;13.744;2023-02-03T11:26:47;100093.83;;;6.87;83.35
74403;BME280;62837;51.082;13.744;2023-02-03T11:29:21;100089.80;;;6.88;83.70
74403;BME280;62837;51.082;13.744;2023-02-03T11:31:56;100083.27;;;6.87;84.12
74403;BME280;62837;51.082;13.744;2023-02-03T11:34:30;100078.14;;;6.88;84.25
74403;BME280;62837;51.082;13.744;2023-02-03T11:37:22;100089.84;;;6.88;84.40
74403;BME280;62837;51.082;13.744;2023-02-03T11:39:57;100102.95;;;6.87;84.50
74403;BME280;62837;51.082;13.744;2023-02-03T11:42:44;100098.38;;;6.88;85.10
74403;BME280;62837;51.082;13.744;2023-02-03T11:45:27;100088.87;;;7.04;85.58
74403;BME280;62837;51.082;13.744;2023-02-03T11:48:01;100090.20;;;7.16;84.76
74403;BME280;62837;51.082;13.744;2023-02-03T11:50:39;100090.53;;;7.22;84.84
74403;BME280;62837;51.082;13.744;2023-02-03T11:53:27;100069.61;;;7.26;84.37
74403;BME280;62837;51.082;13.744;2023-02-03T11:56:10;100068.47;;;7.21;84.39
74403;BME280;62837;51.082;13.744;2023-02-03T11:59:08;100056.14;;;7.16;84.33
74403;BME280;62837;51.082;13.744;2023-02-03T12:01:56;100019.07;;;7.14;84.60
74403;BME280;62837;51.082;13.744;2023-02-03T12:04:45;100000.10;;;7.14;84.75
74403;BME280;62837;51.082;13.744;2023-02-03T12:07:42;99982.10;;;7.14;84.88
74403;BME280;62837;51.082;13.744;2023-02-03T12:10:30;99962.24;;;7.16;85.12
74403;BME280;62837;51.082;13.744;2023-02-03T12:13:03;99940.66;;;7.20;85.02
74403;BME280;62837;51.082;13.744;2023-02-03T12:15:49;99960.67;;;7.23;84.99
74403;BME280;62837;51.082;13.744;2023-02-03T12:18:38;99969.85;;;7.26;84.89
74403;BME280;62837;51.082;13.744;2023-02-03T12:21:29;99985.52;;;7.27;84.69
74403;BME280;62837;51.082;13.744;2023-02-03T12:24:06;99991.64;;;7.27;84.82
74403;BME280;62837;51.082;13.744;2023-02-03T12:26:48;99995.95;;;7.26;84.60
74403;BME280;62837;51.082;13.744;2023-02-03T12:29:23;99995.57;;;7.26;84.46
74403;BME280;62837;51.082;13.744;2023-02-03T12:32:01;99991.80;;;7.27;84.08
74403;BME280;62837;51.082;13.744;2023-02-03T12:34:37;99991.70;;;7.30;84.15
74403;BME280;62837;51.082;13.744;2023-02-03T12:37:14;99993.52;;;7.31;83.87
74403;BME280;62837;51.082;13.744;2023-02-03T12:39:51;99975.42;;;7.32;83.75
74403;BME280;62837;51.082;13.744;2023-02-03T12:42:25;99983.74;;;7.33;83.64
74403;BME280;62837;51.082;13.744;2023-02-03T12:45:01;99978.48;;;7.35;83.59
74403;BME280;62837;51.082;13.744;2023-02-03T12:47:37;99962.86;;;7.37;83.00
74403;BME280;62837;51.082;13.744;2023-02-03T12:50:15;99968.79;;;7.41;82.68
74403;BME280;62837;51.082;13.744;2023-02-03T12:52:52;99962.77;;;7.45;82.31
74403;BME280;62837;51.082;13.744;2023-02-03T12:55:30;99964.35;;;7.47;82.26
74403;BME280;62837;51.082;13.744;2023-02-03T12:58:04;99968.55;;;7.48;82.16
74403;BME280;62837;51.082;13.744;2023-02-03T13:00:43;99970.17;;;7.49;82.12
74403;BME280;62837;51.082;13.744;2023-02-03T13:03:21;99974.88;;;7.52;82.04
74403;BME280;62837;51.082;13.744;2023-02-03T13:05:57;99990.41;;;7.51;82.65
74403;BME280;62837;51.082;13.744;2023-02-03T13:08:32;100016.63;;;7.50;83.45
74403;BME280;62837;51.082;13.744;2023-02-03T13:11:12;100030.29;;;7.45;83.89
74403;BME280;62837;51.082;13.744;2023-02-03T13:13:49;100062.23;;;7.42;83.86
74403;BME280;62837;51.082;13.744;2023-02-03T13:16:24;100067.18;;;7.37;82.61
74403;BME280;62837;51.082;13.744;2023-02-03T13:18:59;100051.59;;;7.30;82.57
74403;BME280;62837;51.082;13.744;2023-02-03T13:21:32;100057.66;;;7.25;82.19
74403;BME280;62837;51.082;13.744;2023-02-03T13:24:05;100058.50;;;7.17;79.92
74403;BME280;62837;51.082;13.744;2023-02-03T13:26:50;100064.44;;;7.10;79.31
74403;BME280;62837;51.082;13.744;2023-02-03T13:29:44;100063.82;;;7.04;79.38